NORTHEAST SUFFOLK  -  Rip Current Statement Rip Current Statement        NORTHERN NASSAU  -  Rip Current Statement Rip Current Statement        NORTHERN QUEENS  -  Rip Current Statement Rip Current Statement     Air Quality Alert Air Quality Alert        NORTHWEST SUFFOLK  -  Rip Current Statement Rip Current Statement        SOUTHEAST SUFFOLK  -  Rip Current Statement Rip Current Statement        SOUTHERN NASSAU  -  Rip Current Statement Rip Current Statement        SOUTHERN QUEENS  -  Rip Current Statement Rip Current Statement     Air Quality Alert Air Quality Alert        SOUTHWEST SUFFOLK  -  Rip Current Statement Rip Current Statement      

Active alerts

Northern Queens
  Details for Northern Queens Rip Current Statement  +1 additional alert
Southern Queens
  Details for Southern Queens Rip Current Statement  +1 additional alert
Northern Nassau
  Details for Northern Nassau Rip Current Statement
Southern Nassau
  Details for Southern Nassau Rip Current Statement
Northwest Suffolk
  Details for Northwest Suffolk Rip Current Statement
Southwest Suffolk
  Details for Southwest Suffolk Rip Current Statement
Northeast Suffolk
  Details for Northeast Suffolk Rip Current Statement
Southeast Suffolk
  Details for Southeast Suffolk Rip Current Statement


WXM80 ListenWXM80 Stop

You find our weather info also at:

UK Metoffice

WeatherCloud

Weather Underground

Northeastern Weather Network

AWEKAS

Citizen Weather Observer Program (CWOP)

HAMweather, WeatherForYou, PWS Weather


Weather Underground History page Text

Daily Summary for May 26, 2017 Units:  Both    English   Metric
« Previous Day
Next Day »
Daily Weekly Monthly Yearly Custom
  High: Low: Average:
Temperature: 78.1 °F /  25.6 °C 53.2 °F /  11.8 °C 64 °F /  17.8 °C
Dew Point: 65.4 °F /  18.6 °C 52.7 °F /  11.5 °C 57.6 °F /  14.2 °C
Humidity: 99 % 54 % 82 %
Wind Speed: 8.4 mph /  13.5 km/h - 2.8 mph /  4.5 km/h
Wind Gust: 13.8 mph /  22.2 km/h - -
Wind:- - SW
Pressure: 29.74 in /  1007 hPa 29.42 in /  996.2 hPa -
Precipitation: 0.50 in /  12.7 mm    
Historical Graphs
 
 
Tabular Data for May 26, 2017
Time Temperature Dew Point Pressure Wind Wind Speed Wind Gust Humidity Rainfall Rate (Hourly)
00:00 55.8 °F /  13.2 °C 55.2 °F /  12.9 °C 29.47 in /  997.9 hPa ENE 2.5 mph /  4 km/h 4.0 mph /  6.4 km/h 98 % 0.19 in /  4.83 mm
00:05 55.7 °F /  13.2 °C 55.1 °F /  12.8 °C 29.46 in /  997.5 hPa ENE 3.3 mph /  5.3 km/h 3.5 mph /  5.6 km/h 98 % 0.25 in /  6.35 mm
00:10 55.7 °F /  13.2 °C 55.1 °F /  12.8 °C 29.45 in /  997.2 hPa East 4.3 mph /  6.9 km/h 6.9 mph /  11.1 km/h 98 % 0.27 in /  6.86 mm
00:15 55.7 °F /  13.2 °C 55.1 °F /  12.8 °C 29.43 in /  996.5 hPa ENE 5.1 mph /  8.2 km/h 7.0 mph /  11.3 km/h 98 % 0.29 in /  7.37 mm
00:20 55.6 °F /  13.1 °C 55.0 °F /  12.8 °C 29.43 in /  996.5 hPa East 7.1 mph /  11.4 km/h 11.0 mph /  17.7 km/h 98 % 0.29 in /  7.37 mm
00:26 55.5 °F /  13.1 °C 54.9 °F /  12.7 °C 29.42 in /  996.2 hPa ENE 5.0 mph /  8 km/h 10.0 mph /  16.1 km/h 98 % 0.00 in /  0 mm
00:31 55.5 °F /  13.1 °C 54.9 °F /  12.7 °C 29.42 in /  996.2 hPa East 3.9 mph /  6.3 km/h 9.2 mph /  14.8 km/h 98 % 0.30 in /  7.62 mm
00:36 55.5 °F /  13.1 °C 54.9 °F /  12.7 °C 29.42 in /  996.2 hPa ENE 3.0 mph /  4.8 km/h 10.0 mph /  16.1 km/h 98 % 0.00 in /  0 mm
00:41 55.4 °F /  13 °C 54.8 °F /  12.7 °C 29.42 in /  996.2 hPa ENE 3.0 mph /  4.8 km/h 7.0 mph /  11.3 km/h 98 % 0.00 in /  0 mm
00:46 55.4 °F /  13 °C 54.9 °F /  12.7 °C 29.42 in /  996.2 hPa ENE 3.0 mph /  4.8 km/h 7.0 mph /  11.3 km/h 98 % 0.00 in /  0 mm
00:51 55.5 °F /  13.1 °C 54.9 °F /  12.7 °C 29.43 in /  996.5 hPa ENE 2.0 mph /  3.2 km/h 5.0 mph /  8 km/h 98 % 0.00 in /  0 mm
00:56 55.6 °F /  13.1 °C 55.0 °F /  12.8 °C 29.43 in /  996.5 hPa East 2.0 mph /  3.2 km/h 3.0 mph /  4.8 km/h 98 % 0.00 in /  0 mm
01:01 55.6 °F /  13.1 °C 55.0 °F /  12.8 °C 29.43 in /  996.5 hPa East 3.3 mph /  5.3 km/h 3.5 mph /  5.6 km/h 98 % 0.12 in /  3.05 mm
01:06 55.6 °F /  13.1 °C 55.0 °F /  12.8 °C 29.43 in /  996.5 hPa East 2.0 mph /  3.2 km/h 5.0 mph /  8 km/h 98 % 0.00 in /  0 mm
01:08 55.6 °F /  13.1 °C 55.0 °F /  12.8 °C 29.43 in /  996.5 hPa ENE 1.4 mph /  2.3 km/h 3.5 mph /  5.6 km/h 98 % 0.04 in /  1.02 mm
01:13 55.5 °F /  13.1 °C 54.9 °F /  12.7 °C 29.43 in /  996.5 hPa ENE 2.4 mph /  3.9 km/h 3.5 mph /  5.6 km/h 98 % 0.02 in /  0.51 mm
01:18 55.5 °F /  13.1 °C 54.9 °F /  12.7 °C 29.43 in /  996.5 hPa ENE 2.9 mph /  4.7 km/h 3.5 mph /  5.6 km/h 98 % 0.02 in /  0.51 mm
01:23 55.5 °F /  13.1 °C 54.9 °F /  12.7 °C 29.42 in /  996.2 hPa ENE 1.9 mph /  3.1 km/h 3.5 mph /  5.6 km/h 98 % 0.01 in /  0.25 mm
01:28 55.5 °F /  13.1 °C 54.9 °F /  12.7 °C 29.43 in /  996.5 hPa NE 2.0 mph /  3.2 km/h 3.5 mph /  5.6 km/h 98 % 0.01 in /  0.25 mm
01:33 55.4 °F /  13 °C 55.1 °F /  12.8 °C 29.43 in /  996.5 hPa ENE 1.7 mph /  2.7 km/h 3.0 mph /  4.8 km/h 99 % 0.02 in /  0.51 mm
01:38 55.4 °F /  13 °C 54.8 °F /  12.7 °C 29.43 in /  996.5 hPa NE 0.3 mph /  0.5 km/h 1.2 mph /  1.9 km/h 98 % 0.02 in /  0.51 mm
01:43 55.4 °F /  13 °C 54.8 °F /  12.7 °C 29.43 in /  996.5 hPa NE 0.7 mph /  1.1 km/h 2.3 mph /  3.7 km/h 98 % 0.02 in /  0.51 mm
01:48 55.4 °F /  13 °C 54.8 °F /  12.7 °C 29.43 in /  996.5 hPa NE 0.2 mph /  0.3 km/h 2.0 mph /  3.2 km/h 98 % 0.02 in /  0.51 mm
01:53 55.4 °F /  13 °C 54.8 °F /  12.7 °C 29.43 in /  996.5 hPa NE 0.2 mph /  0.3 km/h 1.2 mph /  1.9 km/h 98 % 0.03 in /  0.76 mm
01:58 55.4 °F /  13 °C 54.8 °F /  12.7 °C 29.43 in /  996.5 hPa ESE 1.2 mph /  1.9 km/h 2.3 mph /  3.7 km/h 98 % 0.03 in /  0.76 mm
02:03 55.4 °F /  13 °C 54.8 °F /  12.7 °C 29.44 in /  996.8 hPa Calm   1.2 mph /  1.9 km/h 98 % 0.03 in /  0.76 mm
02:08 55.3 °F /  12.9 °C 54.7 °F /  12.6 °C 29.44 in /  996.8 hPa ESE 0.1 mph /  0.2 km/h 1.2 mph /  1.9 km/h 98 % 0.05 in /  1.27 mm
02:18 55.3 °F /  12.9 °C 54.7 °F /  12.6 °C 29.43 in /  996.5 hPa NE 0.8 mph /  1.3 km/h 3.5 mph /  5.6 km/h 98 % 0.10 in /  2.54 mm
02:23 55.2 °F /  12.9 °C 54.6 °F /  12.6 °C 29.43 in /  996.5 hPa Calm   3.5 mph /  5.6 km/h 98 % 0.14 in /  3.56 mm
02:28 55.2 °F /  12.9 °C 54.6 °F /  12.6 °C 29.43 in /  996.5 hPa NE 0.9 mph /  1.4 km/h 2.3 mph /  3.7 km/h 98 % 0.18 in /  4.57 mm
02:33 55.1 °F /  12.8 °C 54.5 °F /  12.5 °C 29.43 in /  996.5 hPa ENE 0.9 mph /  1.4 km/h 3.5 mph /  5.6 km/h 98 % 0.20 in /  5.08 mm
02:38 55.1 °F /  12.8 °C 54.5 °F /  12.5 °C 29.42 in /  996.2 hPa NE 3.8 mph /  6.1 km/h 6.9 mph /  11.1 km/h 98 % 0.23 in /  5.84 mm
02:43 55.0 °F /  12.8 °C 54.4 °F /  12.4 °C 29.42 in /  996.2 hPa ENE 3.6 mph /  5.8 km/h 6.9 mph /  11.1 km/h 98 % 0.25 in /  6.35 mm
02:48 55.0 °F /  12.8 °C 54.4 °F /  12.4 °C 29.42 in /  996.2 hPa ENE 4.0 mph /  6.4 km/h 5.8 mph /  9.3 km/h 98 % 0.27 in /  6.86 mm
02:53 55.0 °F /  12.8 °C 54.4 °F /  12.4 °C 29.42 in /  996.2 hPa ENE 5.1 mph /  8.2 km/h 8.0 mph /  12.9 km/h 98 % 0.27 in /  6.86 mm
02:58 55.0 °F /  12.8 °C 54.4 °F /  12.4 °C 29.42 in /  996.2 hPa ENE 3.5 mph /  5.6 km/h 10.4 mph /  16.7 km/h 98 % 0.28 in /  7.11 mm
03:03 54.9 °F /  12.7 °C 54.3 °F /  12.4 °C 29.42 in /  996.2 hPa ENE 5.8 mph /  9.3 km/h 10.4 mph /  16.7 km/h 98 % 0.28 in /  7.11 mm
03:08 54.8 °F /  12.7 °C 54.2 °F /  12.3 °C 29.42 in /  996.2 hPa NE 4.6 mph /  7.4 km/h 8.1 mph /  13 km/h 98 % 0.26 in /  6.6 mm
03:14 54.7 °F /  12.6 °C 54.1 °F /  12.3 °C 29.42 in /  996.2 hPa ENE 3.8 mph /  6.1 km/h 6.9 mph /  11.1 km/h 98 % 0.23 in /  5.84 mm
03:19 54.7 °F /  12.6 °C 54.1 °F /  12.3 °C 29.43 in /  996.5 hPa ENE 4.9 mph /  7.9 km/h 10.4 mph /  16.7 km/h 98 % 0.19 in /  4.83 mm
03:24 54.5 °F /  12.5 °C 53.9 °F /  12.2 °C 29.42 in /  996.2 hPa ENE 4.5 mph /  7.2 km/h 9.2 mph /  14.8 km/h 98 % 0.15 in /  3.81 mm
03:29 54.4 °F /  12.4 °C 53.8 °F /  12.1 °C 29.43 in /  996.5 hPa ENE 4.9 mph /  7.9 km/h 9.2 mph /  14.8 km/h 98 % 0.11 in /  2.79 mm
03:34 54.4 °F /  12.4 °C 53.8 °F /  12.1 °C 29.43 in /  996.5 hPa ENE 4.9 mph /  7.9 km/h 8.1 mph /  13 km/h 98 % 0.08 in /  2.03 mm
03:39 54.3 °F /  12.4 °C 53.7 °F /  12.1 °C 29.43 in /  996.5 hPa ENE 4.4 mph /  7.1 km/h 6.9 mph /  11.1 km/h 98 % 0.06 in /  1.52 mm
03:44 54.2 °F /  12.3 °C 53.6 °F /  12 °C 29.43 in /  996.5 hPa ENE 2.8 mph /  4.5 km/h 3.5 mph /  5.6 km/h 98 % 0.03 in /  0.76 mm
03:49 54.1 °F /  12.3 °C 53.5 °F /  11.9 °C 29.43 in /  996.5 hPa East 4.4 mph /  7.1 km/h 8.1 mph /  13 km/h 98 % 0.02 in /  0.51 mm
03:54 54.0 °F /  12.2 °C 53.4 °F /  11.9 °C 29.44 in /  996.8 hPa ENE 2.4 mph /  3.9 km/h 8.1 mph /  13 km/h 98 % 0.01 in /  0.25 mm
03:59 53.9 °F /  12.2 °C 53.3 °F /  11.8 °C 29.44 in /  996.8 hPa NE 3.8 mph /  6.1 km/h 4.6 mph /  7.4 km/h 98 % 0.01 in /  0.25 mm
04:04 53.7 °F /  12.1 °C 53.1 °F /  11.7 °C 29.44 in /  996.8 hPa ENE 2.2 mph /  3.5 km/h 3.5 mph /  5.6 km/h 98 % 0.01 in /  0.25 mm
04:09 53.7 °F /  12.1 °C 53.1 °F /  11.7 °C 29.45 in /  997.2 hPa ENE 2.1 mph /  3.4 km/h 3.5 mph /  5.6 km/h 98 % 0.01 in /  0.25 mm
04:14 53.6 °F /  12 °C 53.0 °F /  11.7 °C 29.45 in /  997.2 hPa NE 1.9 mph /  3.1 km/h 4.6 mph /  7.4 km/h 98 % 0.01 in /  0.25 mm
04:19 53.6 °F /  12 °C 53.0 °F /  11.7 °C 29.45 in /  997.2 hPa NE 2.5 mph /  4 km/h 3.5 mph /  5.6 km/h 98 % 0.01 in /  0.25 mm
04:24 53.5 °F /  11.9 °C 52.9 °F /  11.6 °C 29.45 in /  997.2 hPa NNW 4.5 mph /  7.2 km/h 6.0 mph /  9.7 km/h 98 % 0.01 in /  0.25 mm
04:29 53.5 °F /  11.9 °C 52.9 °F /  11.6 °C 29.46 in /  997.5 hPa NNW 2.1 mph /  3.4 km/h 4.0 mph /  6.4 km/h 98 % 0.01 in /  0.25 mm
04:34 53.4 °F /  11.9 °C 52.8 °F /  11.6 °C 29.46 in /  997.5 hPa NNE 2.8 mph /  4.5 km/h 5.8 mph /  9.3 km/h 98 % 0.01 in /  0.25 mm
04:39 53.3 °F /  11.8 °C 52.8 °F /  11.6 °C 29.46 in /  997.5 hPa NNE 2.4 mph /  3.9 km/h 3.5 mph /  5.6 km/h 98 % 0.01 in /  0.25 mm
04:44 53.3 °F /  11.8 °C 52.8 °F /  11.6 °C 29.46 in /  997.5 hPa North 3.2 mph /  5.1 km/h 3.5 mph /  5.6 km/h 98 % 0.02 in /  0.51 mm
04:49 53.3 °F /  11.8 °C 52.8 °F /  11.6 °C 29.46 in /  997.5 hPa NNE 1.8 mph /  2.9 km/h 3.5 mph /  5.6 km/h 98 % 0.01 in /  0.25 mm
04:54 53.3 °F /  11.8 °C 52.8 °F /  11.6 °C 29.46 in /  997.5 hPa NNE 0.2 mph /  0.3 km/h 1.2 mph /  1.9 km/h 98 % 0.01 in /  0.25 mm
04:59 53.2 °F /  11.8 °C 52.7 °F /  11.5 °C 29.46 in /  997.5 hPa NNE 0.7 mph /  1.1 km/h 2.3 mph /  3.7 km/h 98 % 0.01 in /  0.25 mm
05:04 53.2 °F /  11.8 °C 52.7 °F /  11.5 °C 29.46 in /  997.5 hPa ENE 0.6 mph /  1 km/h 3.5 mph /  5.6 km/h 98 % 0.01 in /  0.25 mm
05:09 53.2 °F /  11.8 °C 52.7 °F /  11.5 °C 29.46 in /  997.5 hPa North 0.4 mph /  0.6 km/h 3.5 mph /  5.6 km/h 98 % 0.02 in /  0.51 mm
05:14 53.2 °F /  11.8 °C 52.7 °F /  11.5 °C 29.47 in /  997.9 hPa NNE 1.6 mph /  2.6 km/h 3.5 mph /  5.6 km/h 98 % 0.02 in /  0.51 mm
05:19 53.2 °F /  11.8 °C 52.7 °F /  11.5 °C 29.47 in /  997.9 hPa NNE 0.4 mph /  0.6 km/h 3.5 mph /  5.6 km/h 98 % 0.02 in /  0.51 mm
05:24 53.2 °F /  11.8 °C 52.7 °F /  11.5 °C 29.47 in /  997.9 hPa Calm   2.3 mph /  3.7 km/h 98 % 0.02 in /  0.51 mm
05:30 53.2 °F /  11.8 °C 52.7 °F /  11.5 °C 29.48 in /  998.2 hPa North 2.4 mph /  3.9 km/h 3.5 mph /  5.6 km/h 98 % 0.02 in /  0.51 mm
05:35 53.2 °F /  11.8 °C 52.7 °F /  11.5 °C 29.48 in /  998.2 hPa Calm     98 % 0.03 in /  0.76 mm
05:40 53.2 °F /  11.8 °C 52.7 °F /  11.5 °C 29.48 in /  998.2 hPa NW 1.9 mph /  3.1 km/h 3.5 mph /  5.6 km/h 98 % 0.03 in /  0.76 mm
05:45 53.2 °F /  11.8 °C 52.7 °F /  11.5 °C 29.49 in /  998.5 hPa Calm   2.3 mph /  3.7 km/h 98 % 0.03 in /  0.76 mm
05:50 53.2 °F /  11.8 °C 52.7 °F /  11.5 °C 29.49 in /  998.5 hPa West 1.3 mph /  2.1 km/h 4.6 mph /  7.4 km/h 98 % 0.04 in /  1.02 mm
05:55 53.3 °F /  11.8 °C 52.8 °F /  11.6 °C 29.49 in /  998.5 hPa NW 2.2 mph /  3.5 km/h 6.9 mph /  11.1 km/h 98 % 0.04 in /  1.02 mm
06:00 53.3 °F /  11.8 °C 52.8 °F /  11.6 °C 29.49 in /  998.5 hPa North 1.5 mph /  2.4 km/h 5.0 mph /  8 km/h 98 % 0.05 in /  1.27 mm
06:05 53.3 °F /  11.8 °C 52.8 °F /  11.6 °C 29.50 in /  998.9 hPa NW 0.7 mph /  1.1 km/h 1.0 mph /  1.6 km/h 98 % 0.05 in /  1.27 mm
06:10 53.3 °F /  11.8 °C 52.8 °F /  11.6 °C 29.50 in /  998.9 hPa WNW 3.0 mph /  4.8 km/h 3.5 mph /  5.6 km/h 98 % 0.04 in /  1.02 mm
06:15 53.4 °F /  11.9 °C 52.8 °F /  11.6 °C 29.50 in /  998.9 hPa WNW 2.4 mph /  3.9 km/h 3.5 mph /  5.6 km/h 98 % 0.04 in /  1.02 mm
06:20 53.4 °F /  11.9 °C 52.8 °F /  11.6 °C 29.50 in /  998.9 hPa NNW 1.6 mph /  2.6 km/h 6.0 mph /  9.7 km/h 98 % 0.04 in /  1.02 mm
06:25 53.5 °F /  11.9 °C 52.9 °F /  11.6 °C 29.50 in /  998.9 hPa NNW 1.0 mph /  1.6 km/h 6.0 mph /  9.7 km/h 98 % 0.00 in /  0 mm
06:30 53.5 °F /  11.9 °C 52.9 °F /  11.6 °C 29.51 in /  999.2 hPa Calm   2.0 mph /  3.2 km/h 98 % 0.00 in /  0 mm
06:35 53.5 °F /  11.9 °C 52.9 °F /  11.6 °C 29.51 in /  999.2 hPa NNW 1.0 mph /  1.6 km/h 3.0 mph /  4.8 km/h 98 % 0.00 in /  0 mm
06:40 53.5 °F /  11.9 °C 52.9 °F /  11.6 °C 29.51 in /  999.2 hPa Calm   4.0 mph /  6.4 km/h 98 % 0.00 in /  0 mm
06:45 53.5 °F /  11.9 °C 52.9 °F /  11.6 °C 29.51 in /  999.2 hPa WNW 0.1 mph /  0.2 km/h 1.2 mph /  1.9 km/h 98 % 0.02 in /  0.51 mm
06:50 53.5 °F /  11.9 °C 52.9 °F /  11.6 °C 29.52 in /  999.5 hPa WNW 1.5 mph /  2.4 km/h 1.5 mph /  2.4 km/h 98 % 0.01 in /  0.25 mm
06:53 53.6 °F /  12 °C 53.0 °F /  11.7 °C 29.51 in /  999.2 hPa NE 1.2 mph /  1.9 km/h 4.6 mph /  7.4 km/h 98 % 0.01 in /  0.25 mm
07:03 53.6 °F /  12 °C 53.3 °F /  11.8 °C 29.51 in /  999.2 hPa NNW 1.3 mph /  2.1 km/h 4.0 mph /  6.4 km/h 99 % 0.00 in /  0 mm
07:08 53.7 °F /  12.1 °C 53.4 °F /  11.9 °C 29.51 in /  999.2 hPa NNE 0.9 mph /  1.4 km/h 3.5 mph /  5.6 km/h 99 % 0.00 in /  0 mm
07:13 53.7 °F /  12.1 °C 53.4 °F /  11.9 °C 29.51 in /  999.2 hPa North 0.3 mph /  0.5 km/h 3.5 mph /  5.6 km/h 99 % 0.00 in /  0 mm
07:18 53.7 °F /  12.1 °C 53.4 °F /  11.9 °C 29.52 in /  999.5 hPa NW 0.8 mph /  1.3 km/h 3.5 mph /  5.6 km/h 99 % 0.00 in /  0 mm
07:23 53.8 °F /  12.1 °C 53.5 °F /  11.9 °C 29.52 in /  999.5 hPa NW 0.4 mph /  0.6 km/h 2.3 mph /  3.7 km/h 99 % 0.00 in /  0 mm
07:28 53.9 °F /  12.2 °C 53.6 °F /  12 °C 29.52 in /  999.5 hPa Calm   1.2 mph /  1.9 km/h 99 % 0.00 in /  0 mm
07:33 54.0 °F /  12.2 °C 53.7 °F /  12.1 °C 29.52 in /  999.5 hPa NW 0.1 mph /  0.2 km/h 3.5 mph /  5.6 km/h 99 % 0.00 in /  0 mm
07:38 54.1 °F /  12.3 °C 53.5 °F /  11.9 °C 29.52 in /  999.5 hPa WNW 0.9 mph /  1.4 km/h 5.8 mph /  9.3 km/h 98 % 0.00 in /  0 mm
07:43 54.2 °F /  12.3 °C 53.6 °F /  12 °C 29.53 in /  999.9 hPa Calm   2.3 mph /  3.7 km/h 98 % 0.00 in /  0 mm
07:48 54.3 °F /  12.4 °C 54.0 °F /  12.2 °C 29.53 in /  999.9 hPa WNW 3.1 mph /  5 km/h 4.6 mph /  7.4 km/h 99 % 0.00 in /  0 mm
07:53 54.5 °F /  12.5 °C 54.2 °F /  12.3 °C 29.53 in /  999.9 hPa WNW 0.4 mph /  0.6 km/h 2.3 mph /  3.7 km/h 99 % 0.00 in /  0 mm
07:58 54.6 °F /  12.6 °C 54.3 °F /  12.4 °C 29.53 in /  999.9 hPa West 1.5 mph /  2.4 km/h 3.5 mph /  5.6 km/h 99 % 0.00 in /  0 mm
08:03 54.8 °F /  12.7 °C 54.2 °F /  12.3 °C 29.53 in /  999.9 hPa WNW 0.9 mph /  1.4 km/h 3.5 mph /  5.6 km/h 98 % 0.00 in /  0 mm
08:08 55.0 °F /  12.8 °C 54.7 °F /  12.6 °C 29.53 in /  999.9 hPa WNW 0.4 mph /  0.6 km/h 2.3 mph /  3.7 km/h 99 % 0.00 in /  0 mm
08:13 55.2 °F /  12.9 °C 54.9 °F /  12.7 °C 29.54 in /  1000.2 hPa WNW 0.2 mph /  0.3 km/h 2.0 mph /  3.2 km/h 99 % 0.00 in /  0 mm
08:18 55.4 °F /  13 °C 55.1 °F /  12.8 °C 29.54 in /  1000.2 hPa SW 0.7 mph /  1.1 km/h 2.3 mph /  3.7 km/h 99 % 0.00 in /  0 mm
08:23 55.6 °F /  13.1 °C 55.3 °F /  12.9 °C 29.54 in /  1000.2 hPa WNW 0.1 mph /  0.2 km/h 3.5 mph /  5.6 km/h 99 % 0.00 in /  0 mm
08:28 55.8 °F /  13.2 °C 55.5 °F /  13.1 °C 29.54 in /  1000.2 hPa NW 2.0 mph /  3.2 km/h 4.0 mph /  6.4 km/h 99 % 0.00 in /  0 mm
08:34 55.9 °F /  13.3 °C 55.6 °F /  13.1 °C 29.54 in /  1000.2 hPa West 0.2 mph /  0.3 km/h 3.5 mph /  5.6 km/h 99 % 0.00 in /  0 mm
08:39 56.1 °F /  13.4 °C 55.8 °F /  13.2 °C 29.54 in /  1000.2 hPa WNW 1.1 mph /  1.8 km/h 5.8 mph /  9.3 km/h 99 % 0.00 in /  0 mm
08:44 56.2 °F /  13.4 °C 55.9 °F /  13.3 °C 29.54 in /  1000.2 hPa NW 2.6 mph /  4.2 km/h 3.5 mph /  5.6 km/h 99 % 0.00 in /  0 mm
08:49 56.4 °F /  13.6 °C 56.1 °F /  13.4 °C 29.54 in /  1000.2 hPa WNW 0.1 mph /  0.2 km/h 1.2 mph /  1.9 km/h 99 % 0.00 in /  0 mm
08:54 56.7 °F /  13.7 °C 56.4 °F /  13.6 °C 29.54 in /  1000.2 hPa WSW 1.3 mph /  2.1 km/h 5.0 mph /  8 km/h 99 % 0.00 in /  0 mm
08:59 56.9 °F /  13.8 °C 56.6 °F /  13.7 °C 29.54 in /  1000.2 hPa NW 2.8 mph /  4.5 km/h 5.8 mph /  9.3 km/h 99 % 0.00 in /  0 mm
09:04 57.0 °F /  13.9 °C 56.7 °F /  13.7 °C 29.54 in /  1000.2 hPa WNW 1.6 mph /  2.6 km/h 3.5 mph /  5.6 km/h 99 % 0.00 in /  0 mm
09:09 57.3 °F /  14.1 °C 57.0 °F /  13.9 °C 29.55 in /  1000.6 hPa WNW 2.1 mph /  3.4 km/h 6.9 mph /  11.1 km/h 99 % 0.00 in /  0 mm
09:14 57.7 °F /  14.3 °C 57.4 °F /  14.1 °C 29.54 in /  1000.2 hPa WSW 4.1 mph /  6.6 km/h 6.0 mph /  9.7 km/h 99 % 0.00 in /  0 mm
09:19 57.8 °F /  14.3 °C 57.5 °F /  14.2 °C 29.54 in /  1000.2 hPa WSW 2.4 mph /  3.9 km/h 5.8 mph /  9.3 km/h 99 % 0.00 in /  0 mm
09:24 58.0 °F /  14.4 °C 57.7 °F /  14.3 °C 29.54 in /  1000.2 hPa Calm   1.0 mph /  1.6 km/h 99 % 0.00 in /  0 mm
09:29 58.4 °F /  14.7 °C 58.1 °F /  14.5 °C 29.54 in /  1000.2 hPa NW 2.8 mph /  4.5 km/h 8.0 mph /  12.9 km/h 99 % 0.00 in /  0 mm
09:34 58.7 °F /  14.8 °C 58.4 °F /  14.7 °C 29.54 in /  1000.2 hPa West 1.5 mph /  2.4 km/h 3.5 mph /  5.6 km/h 99 % 0.00 in /  0 mm
09:39 58.9 °F /  14.9 °C 58.6 °F /  14.8 °C 29.54 in /  1000.2 hPa West 5.2 mph /  8.4 km/h 8.1 mph /  13 km/h 99 % 0.00 in /  0 mm
09:44 58.9 °F /  14.9 °C 58.6 °F /  14.8 °C 29.54 in /  1000.2 hPa West 0.3 mph /  0.5 km/h 2.0 mph /  3.2 km/h 99 % 0.00 in /  0 mm
09:49 59.0 °F /  15 °C 58.7 °F /  14.8 °C 29.54 in /  1000.2 hPa West 2.3 mph /  3.7 km/h 4.6 mph /  7.4 km/h 99 % 0.00 in /  0 mm
09:54 59.0 °F /  15 °C 58.4 °F /  14.7 °C 29.54 in /  1000.2 hPa West 1.9 mph /  3.1 km/h 4.6 mph /  7.4 km/h 98 % 0.00 in /  0 mm
09:59 59.1 °F /  15.1 °C 58.5 °F /  14.7 °C 29.54 in /  1000.2 hPa WNW 2.2 mph /  3.5 km/h 3.5 mph /  5.6 km/h 98 % 0.00 in /  0 mm
10:04 59.4 °F /  15.2 °C 58.8 °F /  14.9 °C 29.54 in /  1000.2 hPa WSW 5.8 mph /  9.3 km/h 7.0 mph /  11.3 km/h 98 % 0.00 in /  0 mm
10:09 59.6 °F /  15.3 °C 59.0 °F /  15 °C 29.54 in /  1000.2 hPa WSW 3.6 mph /  5.8 km/h 6.9 mph /  11.1 km/h 98 % 0.00 in /  0 mm
10:14 59.8 °F /  15.4 °C 59.2 °F /  15.1 °C 29.54 in /  1000.2 hPa WSW 2.9 mph /  4.7 km/h 5.8 mph /  9.3 km/h 98 % 0.00 in /  0 mm
10:19 59.9 °F /  15.5 °C 59.3 °F /  15.2 °C 29.54 in /  1000.2 hPa SW 3.3 mph /  5.3 km/h 5.8 mph /  9.3 km/h 98 % 0.00 in /  0 mm
10:24 60.1 °F /  15.6 °C 59.5 °F /  15.3 °C 29.54 in /  1000.2 hPa WSW 5.5 mph /  8.9 km/h 6.0 mph /  9.7 km/h 98 % 0.00 in /  0 mm
10:29 60.4 °F /  15.8 °C 59.8 °F /  15.4 °C 29.54 in /  1000.2 hPa SSW 3.5 mph /  5.6 km/h 7.0 mph /  11.3 km/h 98 % 0.00 in /  0 mm
10:34 61.1 °F /  16.2 °C 60.2 °F /  15.7 °C 29.54 in /  1000.2 hPa WSW 4.4 mph /  7.1 km/h 8.1 mph /  13 km/h 97 % 0.00 in /  0 mm
10:40 61.6 °F /  16.4 °C 60.7 °F /  15.9 °C 29.54 in /  1000.2 hPa WSW 5.3 mph /  8.5 km/h 11.5 mph /  18.5 km/h 97 % 0.00 in /  0 mm
10:45 61.9 °F /  16.6 °C 60.5 °F /  15.8 °C 29.54 in /  1000.2 hPa SSW 4.1 mph /  6.6 km/h 11.5 mph /  18.5 km/h 95 % 0.00 in /  0 mm
10:50 62.5 °F /  16.9 °C 61.0 °F /  16.1 °C 29.54 in /  1000.2 hPa WSW 4.7 mph /  7.6 km/h 8.1 mph /  13 km/h 95 % 0.00 in /  0 mm
10:55 63.4 °F /  17.4 °C 61.6 °F /  16.4 °C 29.54 in /  1000.2 hPa WNW 1.4 mph /  2.3 km/h 3.5 mph /  5.6 km/h 94 % 0.00 in /  0 mm
11:00 63.9 °F /  17.7 °C 61.5 °F /  16.4 °C 29.54 in /  1000.2 hPa WSW 6.0 mph /  9.7 km/h 9.2 mph /  14.8 km/h 92 % 0.00 in /  0 mm
11:05 64.3 °F /  17.9 °C 61.3 °F /  16.3 °C 29.55 in /  1000.6 hPa SSW 3.8 mph /  6.1 km/h 5.8 mph /  9.3 km/h 90 % 0.00 in /  0 mm
11:10 64.7 °F /  18.2 °C 61.7 °F /  16.5 °C 29.54 in /  1000.2 hPa NW 3.9 mph /  6.3 km/h 6.0 mph /  9.7 km/h 90 % 0.00 in /  0 mm
11:15 65.2 °F /  18.4 °C 62.5 °F /  16.9 °C 29.54 in /  1000.2 hPa WNW 1.0 mph /  1.6 km/h 4.6 mph /  7.4 km/h 91 % 0.00 in /  0 mm
11:20 66.3 °F /  19.1 °C 63.6 °F /  17.6 °C 29.54 in /  1000.2 hPa WNW 3.0 mph /  4.8 km/h 5.0 mph /  8 km/h 91 % 0.00 in /  0 mm
11:25 66.9 °F /  19.4 °C 62.9 °F /  17.2 °C 29.54 in /  1000.2 hPa SW 5.2 mph /  8.4 km/h 8.1 mph /  13 km/h 87 % 0.00 in /  0 mm
11:30 67.4 °F /  19.7 °C 63.1 °F /  17.3 °C 29.54 in /  1000.2 hPa West 1.0 mph /  1.6 km/h 5.8 mph /  9.3 km/h 86 % 0.00 in /  0 mm
11:35 68.1 °F /  20.1 °C 63.8 °F /  17.7 °C 29.54 in /  1000.2 hPa NW 2.3 mph /  3.7 km/h 4.6 mph /  7.4 km/h 86 % 0.00 in /  0 mm
11:36 68.1 °F /  20.1 °C 63.8 °F /  17.7 °C 29.54 in /  1000.2 hPa NW 2.3 mph /  3.7 km/h 4.6 mph /  7.4 km/h 86 % 0.00 in /  0 mm
11:41 68.9 °F /  20.5 °C 64.5 °F /  18.1 °C 29.55 in /  1000.6 hPa WSW 4.5 mph /  7.2 km/h 10.0 mph /  16.1 km/h 86 % 0.00 in /  0 mm
11:46 69.4 °F /  20.8 °C 64.0 °F /  17.8 °C 29.55 in /  1000.6 hPa WSW 5.4 mph /  8.7 km/h 9.2 mph /  14.8 km/h 83 % 0.00 in /  0 mm
11:51 70.0 °F /  21.1 °C 63.9 °F /  17.7 °C 29.55 in /  1000.6 hPa WSW 3.4 mph /  5.5 km/h 11.5 mph /  18.5 km/h 81 % 0.00 in /  0 mm
11:56 70.3 °F /  21.3 °C 63.5 °F /  17.5 °C 29.55 in /  1000.6 hPa WSW 6.3 mph /  10.1 km/h 10.4 mph /  16.7 km/h 79 % 0.00 in /  0 mm
12:01 70.4 °F /  21.3 °C 63.6 °F /  17.6 °C 29.55 in /  1000.6 hPa WSW 4.1 mph /  6.6 km/h 11.5 mph /  18.5 km/h 79 % 0.00 in /  0 mm
12:06 70.6 °F /  21.4 °C 64.1 °F /  17.8 °C 29.55 in /  1000.6 hPa WSW 2.4 mph /  3.9 km/h 4.6 mph /  7.4 km/h 80 % 0.00 in /  0 mm
12:11 70.6 °F /  21.4 °C 63.4 °F /  17.4 °C 29.56 in /  1000.9 hPa North 1.7 mph /  2.7 km/h 3.5 mph /  5.6 km/h 78 % 0.00 in /  0 mm
12:16 70.6 °F /  21.4 °C 63.0 °F /  17.2 °C 29.55 in /  1000.6 hPa WNW 5.1 mph /  8.2 km/h 13.8 mph /  22.2 km/h 77 % 0.00 in /  0 mm
12:21 70.4 °F /  21.3 °C 62.8 °F /  17.1 °C 29.55 in /  1000.6 hPa WNW 0.8 mph /  1.3 km/h 3.5 mph /  5.6 km/h 77 % 0.00 in /  0 mm
12:26 70.3 °F /  21.3 °C 63.1 °F /  17.3 °C 29.55 in /  1000.6 hPa WSW 7.3 mph /  11.7 km/h 9.0 mph /  14.5 km/h 78 % 0.00 in /  0 mm
12:31 70.0 °F /  21.1 °C 62.8 °F /  17.1 °C 29.55 in /  1000.6 hPa WSW 5.3 mph /  8.5 km/h 10.4 mph /  16.7 km/h 78 % 0.00 in /  0 mm
12:36 69.8 °F /  21 °C 62.3 °F /  16.8 °C 29.55 in /  1000.6 hPa WSW 5.1 mph /  8.2 km/h 10.4 mph /  16.7 km/h 77 % 0.00 in /  0 mm
12:41 69.7 °F /  20.9 °C 62.5 °F /  16.9 °C 29.55 in /  1000.6 hPa WSW 2.6 mph /  4.2 km/h 6.0 mph /  9.7 km/h 78 % 0.00 in /  0 mm
12:46 69.6 °F /  20.9 °C 62.4 °F /  16.9 °C 29.55 in /  1000.6 hPa SW 6.0 mph /  9.7 km/h 8.1 mph /  13 km/h 78 % 0.00 in /  0 mm
12:51 69.4 °F /  20.8 °C 62.2 °F /  16.8 °C 29.55 in /  1000.6 hPa WSW 4.7 mph /  7.6 km/h 9.2 mph /  14.8 km/h 78 % 0.00 in /  0 mm
12:56 69.5 °F /  20.8 °C 63.4 °F /  17.4 °C 29.55 in /  1000.6 hPa SW 2.8 mph /  4.5 km/h 4.6 mph /  7.4 km/h 81 % 0.00 in /  0 mm
13:01 69.4 °F /  20.8 °C 62.6 °F /  17 °C 29.55 in /  1000.6 hPa WSW 4.0 mph /  6.4 km/h 7.0 mph /  11.3 km/h 79 % 0.00 in /  0 mm
13:11 70.1 °F /  21.2 °C 64.3 °F /  17.9 °C 29.55 in /  1000.6 hPa West 3.2 mph /  5.1 km/h 6.9 mph /  11.1 km/h 82 % 0.00 in /  0 mm
13:17 70.9 °F /  21.6 °C 64.4 °F /  18 °C 29.55 in /  1000.6 hPa WSW 2.2 mph /  3.5 km/h 4.6 mph /  7.4 km/h 80 % 0.00 in /  0 mm
13:22 71.6 °F /  22 °C 64.4 °F /  18 °C 29.55 in /  1000.6 hPa SW 2.1 mph /  3.4 km/h 5.0 mph /  8 km/h 78 % 0.00 in /  0 mm
13:27 72.2 °F /  22.3 °C 65.0 °F /  18.3 °C 29.55 in /  1000.6 hPa SW 3.5 mph /  5.6 km/h 5.0 mph /  8 km/h 78 % 0.00 in /  0 mm
13:32 72.6 °F /  22.6 °C 64.2 °F /  17.9 °C 29.55 in /  1000.6 hPa West 1.6 mph /  2.6 km/h 3.5 mph /  5.6 km/h 75 % 0.00 in /  0 mm
13:37 73.0 °F /  22.8 °C 64.6 °F /  18.1 °C 29.55 in /  1000.6 hPa NW 2.4 mph /  3.9 km/h 4.6 mph /  7.4 km/h 75 % 0.00 in /  0 mm
13:42 73.8 °F /  23.2 °C 65.4 °F /  18.6 °C 29.55 in /  1000.6 hPa WSW 3.2 mph /  5.1 km/h 5.0 mph /  8 km/h 75 % 0.00 in /  0 mm
13:47 74.4 °F /  23.6 °C 64.4 °F /  18 °C 29.55 in /  1000.6 hPa WSW 3.1 mph /  5 km/h 4.6 mph /  7.4 km/h 71 % 0.00 in /  0 mm
13:52 74.9 °F /  23.8 °C 63.6 °F /  17.6 °C 29.55 in /  1000.6 hPa SW 4.5 mph /  7.2 km/h 8.1 mph /  13 km/h 68 % 0.00 in /  0 mm
13:57 75.2 °F /  24 °C 64.7 °F /  18.2 °C 29.55 in /  1000.6 hPa SW 4.6 mph /  7.4 km/h 6.9 mph /  11.1 km/h 70 % 0.00 in /  0 mm
14:02 75.2 °F /  24 °C 64.3 °F /  17.9 °C 29.55 in /  1000.6 hPa West 1.4 mph /  2.3 km/h 2.3 mph /  3.7 km/h 69 % 0.00 in /  0 mm
14:07 75.2 °F /  24 °C 63.9 °F /  17.7 °C 29.55 in /  1000.6 hPa WNW 0.3 mph /  0.5 km/h 3.5 mph /  5.6 km/h 68 % 0.00 in /  0 mm
14:12 75.0 °F /  23.9 °C 63.3 °F /  17.4 °C 29.55 in /  1000.6 hPa WSW 2.5 mph /  4 km/h 4.0 mph /  6.4 km/h 67 % 0.00 in /  0 mm
14:17 74.9 °F /  23.8 °C 64.0 °F /  17.8 °C 29.55 in /  1000.6 hPa WNW 1.2 mph /  1.9 km/h 2.0 mph /  3.2 km/h 69 % 0.00 in /  0 mm
14:22 74.9 °F /  23.8 °C 64.9 °F /  18.3 °C 29.55 in /  1000.6 hPa West 1.7 mph /  2.7 km/h 4.0 mph /  6.4 km/h 71 % 0.00 in /  0 mm
14:27 75.1 °F /  23.9 °C 65.1 °F /  18.4 °C 29.55 in /  1000.6 hPa WNW 0.5 mph /  0.8 km/h 4.6 mph /  7.4 km/h 71 % 0.00 in /  0 mm
14:32 75.4 °F /  24.1 °C 65.3 °F /  18.5 °C 29.55 in /  1000.6 hPa NW 2.1 mph /  3.4 km/h 4.6 mph /  7.4 km/h 71 % 0.00 in /  0 mm
14:37 75.7 °F /  24.3 °C 64.4 °F /  18 °C 29.55 in /  1000.6 hPa West 4.1 mph /  6.6 km/h 7.0 mph /  11.3 km/h 68 % 0.00 in /  0 mm
14:42 75.9 °F /  24.4 °C 64.6 °F /  18.1 °C 29.56 in /  1000.9 hPa NNW 1.8 mph /  2.9 km/h 3.5 mph /  5.6 km/h 68 % 0.00 in /  0 mm
14:47 76.0 °F /  24.4 °C 64.2 °F /  17.9 °C 29.55 in /  1000.6 hPa Calm   1.2 mph /  1.9 km/h 67 % 0.00 in /  0 mm
14:52 76.3 °F /  24.6 °C 65.4 °F /  18.6 °C 29.55 in /  1000.6 hPa WNW 4.4 mph /  7.1 km/h 6.9 mph /  11.1 km/h 69 % 0.00 in /  0 mm
14:54 76.5 °F /  24.7 °C 64.3 °F /  17.9 °C 29.55 in /  1000.6 hPa NNW 3.0 mph /  4.8 km/h 6.9 mph /  11.1 km/h 66 % 0.00 in /  0 mm
14:59 76.6 °F /  24.8 °C 62.6 °F /  17 °C 29.55 in /  1000.6 hPa ENE 0.7 mph /  1.1 km/h 5.8 mph /  9.3 km/h 62 % 0.00 in /  0 mm
15:04 76.7 °F /  24.8 °C 62.2 °F /  16.8 °C 29.56 in /  1000.9 hPa WSW 3.7 mph /  6 km/h 8.1 mph /  13 km/h 61 % 0.00 in /  0 mm
15:09 77.0 °F /  25 °C 62.0 °F /  16.7 °C 29.56 in /  1000.9 hPa West 7.0 mph /  11.3 km/h 11.5 mph /  18.5 km/h 60 % 0.00 in /  0 mm
15:14 77.0 °F /  25 °C 60.6 °F /  15.9 °C 29.56 in /  1000.9 hPa WNW 5.9 mph /  9.5 km/h 11.5 mph /  18.5 km/h 57 % 0.00 in /  0 mm
15:19 77.0 °F /  25 °C 61.6 °F /  16.4 °C 29.56 in /  1000.9 hPa WNW 4.4 mph /  7.1 km/h 10.4 mph /  16.7 km/h 59 % 0.00 in /  0 mm
15:24 77.2 °F /  25.1 °C 62.2 °F /  16.8 °C 29.56 in /  1000.9 hPa WNW 2.7 mph /  4.3 km/h 5.0 mph /  8 km/h 60 % 0.00 in /  0 mm
15:29 77.3 °F /  25.2 °C 61.4 °F /  16.3 °C 29.56 in /  1000.9 hPa WNW 6.5 mph /  10.5 km/h 13.8 mph /  22.2 km/h 58 % 0.00 in /  0 mm
15:34 77.3 °F /  25.2 °C 60.4 °F /  15.8 °C 29.56 in /  1000.9 hPa NW 5.8 mph /  9.3 km/h 8.1 mph /  13 km/h 56 % 0.00 in /  0 mm
15:39 77.4 °F /  25.2 °C 61.0 °F /  16.1 °C 29.56 in /  1000.9 hPa West 5.1 mph /  8.2 km/h 8.1 mph /  13 km/h 57 % 0.00 in /  0 mm
15:44 77.5 °F /  25.3 °C 60.6 °F /  15.9 °C 29.56 in /  1000.9 hPa WNW 4.6 mph /  7.4 km/h 11.5 mph /  18.5 km/h 56 % 0.00 in /  0 mm
15:49 77.5 °F /  25.3 °C 61.6 °F /  16.4 °C 29.56 in /  1000.9 hPa NW 5.6 mph /  9 km/h 9.2 mph /  14.8 km/h 58 % 0.00 in /  0 mm
15:54 77.5 °F /  25.3 °C 61.6 °F /  16.4 °C 29.56 in /  1000.9 hPa WNW 2.1 mph /  3.4 km/h 4.6 mph /  7.4 km/h 58 % 0.00 in /  0 mm
15:57 77.6 °F /  25.3 °C 62.1 °F /  16.7 °C 29.56 in /  1000.9 hPa West 5.4 mph /  8.7 km/h 10.4 mph /  16.7 km/h 59 % 0.00 in /  0 mm
16:02 77.7 °F /  25.4 °C 60.8 °F /  16 °C 29.56 in /  1000.9 hPa West 4.5 mph /  7.2 km/h 9.2 mph /  14.8 km/h 56 % 0.00 in /  0 mm
16:07 77.8 °F /  25.4 °C 60.8 °F /  16 °C 29.56 in /  1000.9 hPa West 4.4 mph /  7.1 km/h 11.5 mph /  18.5 km/h 56 % 0.00 in /  0 mm
16:12 77.8 °F /  25.4 °C 61.3 °F /  16.3 °C 29.56 in /  1000.9 hPa West 3.3 mph /  5.3 km/h 7.0 mph /  11.3 km/h 57 % 0.00 in /  0 mm
16:17 78.0 °F /  25.6 °C 60.5 °F /  15.8 °C 29.56 in /  1000.9 hPa NW 4.2 mph /  6.8 km/h 5.8 mph /  9.3 km/h 55 % 0.00 in /  0 mm
16:22 78.1 °F /  25.6 °C 60.6 °F /  15.9 °C 29.57 in /  1001.2 hPa West 4.6 mph /  7.4 km/h 8.0 mph /  12.9 km/h 55 % 0.00 in /  0 mm
16:24 78.0 °F /  25.6 °C 60.5 °F /  15.8 °C 29.57 in /  1001.2 hPa NW 5.1 mph /  8.2 km/h 9.2 mph /  14.8 km/h 55 % 0.00 in /  0 mm
16:29 77.9 °F /  25.5 °C 60.4 °F /  15.8 °C 29.57 in /  1001.2 hPa WNW 5.2 mph /  8.4 km/h 8.1 mph /  13 km/h 55 % 0.00 in /  0 mm
16:34 77.8 °F /  25.4 °C 61.3 °F /  16.3 °C 29.57 in /  1001.2 hPa WNW 2.3 mph /  3.7 km/h 3.5 mph /  5.6 km/h 57 % 0.00 in /  0 mm
16:39 77.8 °F /  25.4 °C 60.3 °F /  15.7 °C 29.57 in /  1001.2 hPa WSW 4.3 mph /  6.9 km/h 9.2 mph /  14.8 km/h 55 % 0.00 in /  0 mm
16:44 77.8 °F /  25.4 °C 59.8 °F /  15.4 °C 29.57 in /  1001.2 hPa WNW 1.9 mph /  3.1 km/h 4.0 mph /  6.4 km/h 54 % 0.00 in /  0 mm
16:49 77.8 °F /  25.4 °C 59.8 °F /  15.4 °C 29.58 in /  1001.6 hPa WNW 6.0 mph /  9.7 km/h 9.2 mph /  14.8 km/h 54 % 0.00 in /  0 mm
16:54 77.7 °F /  25.4 °C 60.2 °F /  15.7 °C 29.57 in /  1001.2 hPa NW 2.2 mph /  3.5 km/h 5.8 mph /  9.3 km/h 55 % 0.00 in /  0 mm
16:59 77.6 °F /  25.3 °C 59.6 °F /  15.3 °C 29.57 in /  1001.2 hPa WNW 4.5 mph /  7.2 km/h 11.5 mph /  18.5 km/h 54 % 0.00 in /  0 mm
17:04 77.3 °F /  25.2 °C 59.4 °F /  15.2 °C 29.57 in /  1001.2 hPa NW 3.5 mph /  5.6 km/h 11.5 mph /  18.5 km/h 54 % 0.00 in /  0 mm
17:09 77.0 °F /  25 °C 59.1 °F /  15.1 °C 29.57 in /  1001.2 hPa WSW 2.7 mph /  4.3 km/h 5.8 mph /  9.3 km/h 54 % 0.00 in /  0 mm
17:14 76.7 °F /  24.8 °C 60.3 °F /  15.7 °C 29.57 in /  1001.2 hPa NW 2.3 mph /  3.7 km/h 5.8 mph /  9.3 km/h 57 % 0.00 in /  0 mm
17:19 76.3 °F /  24.6 °C 59.9 °F /  15.5 °C 29.58 in /  1001.6 hPa WSW 2.4 mph /  3.9 km/h 9.0 mph /  14.5 km/h 57 % 0.00 in /  0 mm
17:24 76.2 °F /  24.6 °C 59.4 °F /  15.2 °C 29.57 in /  1001.2 hPa WNW 1.2 mph /  1.9 km/h 3.5 mph /  5.6 km/h 56 % 0.00 in /  0 mm
17:29 76.0 °F /  24.4 °C 59.2 °F /  15.1 °C 29.58 in /  1001.6 hPa West 5.6 mph /  9 km/h 8.0 mph /  12.9 km/h 56 % 0.00 in /  0 mm
17:34 75.9 °F /  24.4 °C 59.6 °F /  15.3 °C 29.58 in /  1001.6 hPa NW 2.1 mph /  3.4 km/h 6.0 mph /  9.7 km/h 57 % 0.00 in /  0 mm
17:39 75.7 °F /  24.3 °C 58.9 °F /  14.9 °C 29.58 in /  1001.6 hPa WNW 2.9 mph /  4.7 km/h 4.6 mph /  7.4 km/h 56 % 0.00 in /  0 mm
17:44 75.7 °F /  24.3 °C 59.9 °F /  15.5 °C 29.58 in /  1001.6 hPa WNW 3.9 mph /  6.3 km/h 5.0 mph /  8 km/h 58 % 0.00 in /  0 mm
17:49 75.5 °F /  24.2 °C 59.7 °F /  15.4 °C 29.58 in /  1001.6 hPa WNW 3.6 mph /  5.8 km/h 6.9 mph /  11.1 km/h 58 % 0.00 in /  0 mm
17:54 75.2 °F /  24 °C 59.4 °F /  15.2 °C 29.58 in /  1001.6 hPa NW 2.8 mph /  4.5 km/h 6.9 mph /  11.1 km/h 58 % 0.00 in /  0 mm
17:59 75.0 °F /  23.9 °C 59.2 °F /  15.1 °C 29.59 in /  1001.9 hPa WNW 2.6 mph /  4.2 km/h 5.8 mph /  9.3 km/h 58 % 0.00 in /  0 mm
18:04 74.8 °F /  23.8 °C 59.5 °F /  15.3 °C 29.59 in /  1001.9 hPa WNW 2.5 mph /  4 km/h 5.0 mph /  8 km/h 59 % 0.00 in /  0 mm
18:10 74.5 °F /  23.6 °C 59.2 °F /  15.1 °C 29.59 in /  1001.9 hPa WNW 2.6 mph /  4.2 km/h 8.1 mph /  13 km/h 59 % 0.00 in /  0 mm
18:15 74.1 °F /  23.4 °C 58.4 °F /  14.7 °C 29.59 in /  1001.9 hPa West 5.4 mph /  8.7 km/h 9.2 mph /  14.8 km/h 58 % 0.00 in /  0 mm
18:20 73.7 °F /  23.2 °C 58.9 °F /  14.9 °C 29.59 in /  1001.9 hPa WSW 2.5 mph /  4 km/h 10.4 mph /  16.7 km/h 60 % 0.00 in /  0 mm
18:25 73.4 °F /  23 °C 58.7 °F /  14.8 °C 29.60 in /  1002.3 hPa West 6.1 mph /  9.8 km/h 9.2 mph /  14.8 km/h 60 % 0.00 in /  0 mm
18:30 73.0 °F /  22.8 °C 58.8 °F /  14.9 °C 29.60 in /  1002.3 hPa WNW 1.2 mph /  1.9 km/h 4.6 mph /  7.4 km/h 61 % 0.00 in /  0 mm
18:35 73.0 °F /  22.8 °C 58.8 °F /  14.9 °C 29.60 in /  1002.3 hPa WNW 3.9 mph /  6.3 km/h 5.8 mph /  9.3 km/h 61 % 0.00 in /  0 mm
18:39 72.9 °F /  22.7 °C 59.6 °F /  15.3 °C 29.61 in /  1002.6 hPa WNW 3.9 mph /  6.3 km/h 7.0 mph /  11.3 km/h 63 % 0.00 in /  0 mm
18:45 72.8 °F /  22.7 °C 59.0 °F /  15 °C 29.61 in /  1002.6 hPa WNW 3.9 mph /  6.3 km/h 9.0 mph /  14.5 km/h 62 % 0.00 in /  0 mm
18:50 72.7 °F /  22.6 °C 58.9 °F /  14.9 °C 29.61 in /  1002.6 hPa WNW 3.5 mph /  5.6 km/h 5.8 mph /  9.3 km/h 62 % 0.00 in /  0 mm
18:54 72.7 °F /  22.6 °C 58.5 °F /  14.7 °C 29.61 in /  1002.6 hPa NW 2.5 mph /  4 km/h 9.2 mph /  14.8 km/h 61 % 0.00 in /  0 mm
19:00 72.7 °F /  22.6 °C 58.5 °F /  14.7 °C 29.61 in /  1002.6 hPa WSW 2.5 mph /  4 km/h 5.8 mph /  9.3 km/h 61 % 0.00 in /  0 mm
19:02 72.7 °F /  22.6 °C 58.5 °F /  14.7 °C 29.61 in /  1002.6 hPa West 4.2 mph /  6.8 km/h 9.2 mph /  14.8 km/h 61 % 0.00 in /  0 mm
19:07 72.5 °F /  22.5 °C 57.8 °F /  14.3 °C 29.61 in /  1002.6 hPa WNW 5.6 mph /  9 km/h 10.4 mph /  16.7 km/h 60 % 0.00 in /  0 mm
19:12 72.4 °F /  22.4 °C 58.2 °F /  14.6 °C 29.62 in /  1002.9 hPa NW 2.6 mph /  4.2 km/h 8.0 mph /  12.9 km/h 61 % 0.00 in /  0 mm
19:17 72.3 °F /  22.4 °C 58.1 °F /  14.5 °C 29.62 in /  1002.9 hPa WNW 6.0 mph /  9.7 km/h 9.2 mph /  14.8 km/h 61 % 0.00 in /  0 mm
19:22 72.1 °F /  22.3 °C 58.4 °F /  14.7 °C 29.63 in /  1003.3 hPa NW 2.9 mph /  4.7 km/h 9.2 mph /  14.8 km/h 62 % 0.00 in /  0 mm
19:27 72.0 °F /  22.2 °C 57.8 °F /  14.3 °C 29.63 in /  1003.3 hPa NW 4.7 mph /  7.6 km/h 10.4 mph /  16.7 km/h 61 % 0.00 in /  0 mm
19:32 71.8 °F /  22.1 °C 58.1 °F /  14.5 °C 29.63 in /  1003.3 hPa WNW 5.3 mph /  8.5 km/h 9.2 mph /  14.8 km/h 62 % 0.00 in /  0 mm
19:37 71.6 °F /  22 °C 57.9 °F /  14.4 °C 29.63 in /  1003.3 hPa WNW 2.0 mph /  3.2 km/h 6.9 mph /  11.1 km/h 62 % 0.00 in /  0 mm
19:42 71.4 °F /  21.9 °C 57.7 °F /  14.3 °C 29.64 in /  1003.6 hPa WNW 8.4 mph /  13.5 km/h 11.5 mph /  18.5 km/h 62 % 0.00 in /  0 mm
19:47 71.1 °F /  21.7 °C 57.4 °F /  14.1 °C 29.64 in /  1003.6 hPa WNW 4.4 mph /  7.1 km/h 9.0 mph /  14.5 km/h 62 % 0.00 in /  0 mm
19:52 70.9 °F /  21.6 °C 57.7 °F /  14.3 °C 29.64 in /  1003.6 hPa West 6.3 mph /  10.1 km/h 10.4 mph /  16.7 km/h 63 % 0.00 in /  0 mm
19:57 70.6 °F /  21.4 °C 57.8 °F /  14.3 °C 29.64 in /  1003.6 hPa West 4.4 mph /  7.1 km/h 9.2 mph /  14.8 km/h 64 % 0.00 in /  0 mm
20:02 70.3 °F /  21.3 °C 57.5 °F /  14.2 °C 29.64 in /  1003.6 hPa WNW 3.1 mph /  5 km/h 9.2 mph /  14.8 km/h 64 % 0.00 in /  0 mm
20:07 70.0 °F /  21.1 °C 57.7 °F /  14.3 °C 29.64 in /  1003.6 hPa WNW 3.7 mph /  6 km/h 10.0 mph /  16.1 km/h 65 % 0.00 in /  0 mm
20:12 69.8 °F /  21 °C 57.9 °F /  14.4 °C 29.64 in /  1003.6 hPa WNW 2.0 mph /  3.2 km/h 9.2 mph /  14.8 km/h 66 % 0.00 in /  0 mm
20:17 69.5 °F /  20.8 °C 57.2 °F /  14 °C 29.65 in /  1003.9 hPa WNW 5.6 mph /  9 km/h 9.2 mph /  14.8 km/h 65 % 0.00 in /  0 mm
20:22 69.2 °F /  20.7 °C 57.4 °F /  14.1 °C 29.65 in /  1003.9 hPa WNW 5.4 mph /  8.7 km/h 10.4 mph /  16.7 km/h 66 % 0.00 in /  0 mm
20:27 69.0 °F /  20.6 °C 57.2 °F /  14 °C 29.66 in /  1004.3 hPa WSW 2.9 mph /  4.7 km/h 7.0 mph /  11.3 km/h 66 % 0.00 in /  0 mm
20:32 68.9 °F /  20.5 °C 57.1 °F /  13.9 °C 29.66 in /  1004.3 hPa WNW 2.6 mph /  4.2 km/h 10.4 mph /  16.7 km/h 66 % 0.00 in /  0 mm
20:37 68.7 °F /  20.4 °C 57.3 °F /  14.1 °C 29.66 in /  1004.3 hPa WSW 3.8 mph /  6.1 km/h 10.4 mph /  16.7 km/h 67 % 0.00 in /  0 mm
20:42 68.5 °F /  20.3 °C 57.1 °F /  13.9 °C 29.67 in /  1004.6 hPa NW 6.1 mph /  9.8 km/h 10.4 mph /  16.7 km/h 67 % 0.00 in /  0 mm
20:47 68.3 °F /  20.2 °C 57.3 °F /  14.1 °C 29.67 in /  1004.6 hPa WNW 3.5 mph /  5.6 km/h 8.1 mph /  13 km/h 68 % 0.00 in /  0 mm
20:52 67.9 °F /  19.9 °C 56.9 °F /  13.8 °C 29.67 in /  1004.6 hPa WNW 3.3 mph /  5.3 km/h 9.0 mph /  14.5 km/h 68 % 0.00 in /  0 mm
20:57 67.7 °F /  19.8 °C 57.2 °F /  14 °C 29.68 in /  1005 hPa WNW 1.5 mph /  2.4 km/h 8.1 mph /  13 km/h 69 % 0.00 in /  0 mm
21:03 67.5 °F /  19.7 °C 57.4 °F /  14.1 °C 29.68 in /  1005 hPa NNW 1.9 mph /  3.1 km/h 3.5 mph /  5.6 km/h 70 % 0.00 in /  0 mm
21:08 67.3 °F /  19.6 °C 57.2 °F /  14 °C 29.69 in /  1005.3 hPa WNW 5.0 mph /  8 km/h 13.0 mph /  20.9 km/h 70 % 0.00 in /  0 mm
21:13 67.0 °F /  19.4 °C 56.9 °F /  13.8 °C 29.69 in /  1005.3 hPa NW 2.5 mph /  4 km/h 8.1 mph /  13 km/h 70 % 0.00 in /  0 mm
21:18 66.7 °F /  19.3 °C 56.2 °F /  13.4 °C 29.69 in /  1005.3 hPa NNW 3.3 mph /  5.3 km/h 7.0 mph /  11.3 km/h 69 % 0.00 in /  0 mm
21:23 66.4 °F /  19.1 °C 55.9 °F /  13.3 °C 29.69 in /  1005.3 hPa NE 3.3 mph /  5.3 km/h 8.1 mph /  13 km/h 69 % 0.00 in /  0 mm
21:28 66.2 °F /  19 °C 55.7 °F /  13.2 °C 29.70 in /  1005.6 hPa NNW 5.0 mph /  8 km/h 10.4 mph /  16.7 km/h 69 % 0.00 in /  0 mm
21:33 66.0 °F /  18.9 °C 55.5 °F /  13.1 °C 29.70 in /  1005.6 hPa ENE 4.1 mph /  6.6 km/h 6.9 mph /  11.1 km/h 69 % 0.00 in /  0 mm
21:38 65.8 °F /  18.8 °C 55.7 °F /  13.2 °C 29.70 in /  1005.6 hPa WNW 3.1 mph /  5 km/h 9.2 mph /  14.8 km/h 70 % 0.00 in /  0 mm
21:43 65.7 °F /  18.7 °C 56.0 °F /  13.3 °C 29.71 in /  1006 hPa WNW 0.4 mph /  0.6 km/h 6.9 mph /  11.1 km/h 71 % 0.00 in /  0 mm
21:48 65.6 °F /  18.7 °C 56.3 °F /  13.5 °C 29.71 in /  1006 hPa NW 2.6 mph /  4.2 km/h 4.0 mph /  6.4 km/h 72 % 0.00 in /  0 mm
21:53 65.4 °F /  18.6 °C 56.1 °F /  13.4 °C 29.72 in /  1006.3 hPa NW 2.1 mph /  3.4 km/h 6.9 mph /  11.1 km/h 72 % 0.00 in /  0 mm
21:58 65.3 °F /  18.5 °C 56.4 °F /  13.6 °C 29.72 in /  1006.3 hPa WNW 2.4 mph /  3.9 km/h 3.5 mph /  5.6 km/h 73 % 0.00 in /  0 mm
22:04 65.1 °F /  18.4 °C 56.2 °F /  13.4 °C 29.72 in /  1006.3 hPa NW 3.6 mph /  5.8 km/h 8.1 mph /  13 km/h 73 % 0.00 in /  0 mm
22:09 65.0 °F /  18.3 °C 56.5 °F /  13.6 °C 29.72 in /  1006.3 hPa West 1.2 mph /  1.9 km/h 3.5 mph /  5.6 km/h 74 % 0.00 in /  0 mm
22:16 64.9 °F /  18.3 °C 56.4 °F /  13.6 °C 29.72 in /  1006.3 hPa WNW 2.0 mph /  3.2 km/h 3.0 mph /  4.8 km/h 74 % 0.00 in /  0 mm
22:21 64.4 °F /  18 °C 56.7 °F /  13.7 °C 29.73 in /  1006.7 hPa WNW 2.1 mph /  3.4 km/h 5.0 mph /  8 km/h 76 % 0.00 in /  0 mm
22:26 64.1 °F /  17.8 °C 56.4 °F /  13.6 °C 29.73 in /  1006.7 hPa WNW 2.7 mph /  4.3 km/h 3.5 mph /  5.6 km/h 76 % 0.00 in /  0 mm
22:31 63.9 °F /  17.7 °C 56.2 °F /  13.4 °C 29.73 in /  1006.7 hPa WNW 1.1 mph /  1.8 km/h 3.5 mph /  5.6 km/h 76 % 0.00 in /  0 mm
22:36 63.6 °F /  17.6 °C 55.9 °F /  13.3 °C 29.73 in /  1006.7 hPa SW 2.1 mph /  3.4 km/h 5.8 mph /  9.3 km/h 76 % 0.00 in /  0 mm
22:41 63.5 °F /  17.5 °C 56.2 °F /  13.4 °C 29.73 in /  1006.7 hPa West 0.5 mph /  0.8 km/h 2.3 mph /  3.7 km/h 77 % 0.00 in /  0 mm
22:46 63.4 °F /  17.4 °C 56.1 °F /  13.4 °C 29.73 in /  1006.7 hPa WNW 0.2 mph /  0.3 km/h 2.3 mph /  3.7 km/h 77 % 0.00 in /  0 mm
22:51 63.2 °F /  17.3 °C 55.9 °F /  13.3 °C 29.73 in /  1006.7 hPa SW 0.6 mph /  1 km/h 3.5 mph /  5.6 km/h 77 % 0.00 in /  0 mm
22:56 63.1 °F /  17.3 °C 55.8 °F /  13.2 °C 29.73 in /  1006.7 hPa WNW 1.9 mph /  3.1 km/h 5.8 mph /  9.3 km/h 77 % 0.00 in /  0 mm
23:01 63.0 °F /  17.2 °C 55.7 °F /  13.2 °C 29.74 in /  1007 hPa NW 5.0 mph /  8 km/h 8.1 mph /  13 km/h 77 % 0.00 in /  0 mm
23:06 63.0 °F /  17.2 °C 55.7 °F /  13.2 °C 29.74 in /  1007 hPa WNW 3.5 mph /  5.6 km/h 5.8 mph /  9.3 km/h 77 % 0.00 in /  0 mm
23:11 62.9 °F /  17.2 °C 55.6 °F /  13.1 °C 29.74 in /  1007 hPa WNW 1.7 mph /  2.7 km/h 4.6 mph /  7.4 km/h 77 % 0.00 in /  0 mm
23:16 62.9 °F /  17.2 °C 55.6 °F /  13.1 °C 29.74 in /  1007 hPa WNW 2.5 mph /  4 km/h 4.6 mph /  7.4 km/h 77 % 0.00 in /  0 mm
23:21 62.9 °F /  17.2 °C 55.6 °F /  13.1 °C 29.74 in /  1007 hPa NW 2.6 mph /  4.2 km/h 5.8 mph /  9.3 km/h 77 % 0.00 in /  0 mm
23:26 62.8 °F /  17.1 °C 55.5 °F /  13.1 °C 29.74 in /  1007 hPa Calm     77 % 0.00 in /  0 mm
23:31 62.8 °F /  17.1 °C 55.8 °F /  13.2 °C 29.74 in /  1007 hPa Calm     78 % 0.00 in /  0 mm
23:36 62.7 °F /  17.1 °C 56.1 °F /  13.4 °C 29.74 in /  1007 hPa Calm     79 % 0.00 in /  0 mm
23:41 62.6 °F /  17 °C 56.3 °F /  13.5 °C 29.74 in /  1007 hPa NW 0.3 mph /  0.5 km/h 2.3 mph /  3.7 km/h 80 % 0.00 in /  0 mm
23:46 62.5 °F /  16.9 °C 56.2 °F /  13.4 °C 29.74 in /  1007 hPa Calm     80 % 0.00 in /  0 mm
23:51 62.3 °F /  16.8 °C 56.0 °F /  13.3 °C 29.74 in /  1007 hPa Calm     80 % 0.00 in /  0 mm
23:55 62.1 °F /  16.7 °C 55.9 °F /  13.3 °C 29.74 in /  1007 hPa Calm     80 % 0.00 in /  0 mm
Crab Meadow Weather
Compliments of Weather Underground - 3 mb

Script developed by  Jim McMurry - jmcmurry@mwt.net Adapted for the template by  Wim van der Kuil - Leuven-Template.eu

Weather Terms: Tornado Warning - Strong rotation in a thunderstorm is indicated by Doppler radar or a tornado is sighted by skywarn spotters. These warnings are issued on a county by county basis by the local Weather Forecast office in Upton.